createdAt,value
2023-04-06T00:01:06.733Z,101814.84
2023-04-06T00:06:10.381Z,101817.06
2023-04-06T00:11:15.714Z,101825.72
2023-04-06T00:16:19.747Z,101818.25
2023-04-06T00:21:23.456Z,101817.25
2023-04-06T00:26:28.885Z,101808.63
2023-04-06T00:31:32.614Z,101799.50
2023-04-06T00:36:36.291Z,101797.31
2023-04-06T00:41:45.365Z,101809.97
2023-04-06T00:46:49.310Z,101813.41
2023-04-06T00:51:52.989Z,101807.91
2023-04-06T00:56:58.749Z,101800.06
2023-04-06T01:02:02.589Z,101800.16
2023-04-06T01:07:06.254Z,101807.25
2023-04-06T01:12:12.634Z,101812.28
2023-04-06T01:17:16.395Z,101813.25
2023-04-06T01:22:22.319Z,101804.88
2023-04-06T01:27:25.990Z,101807.25
2023-04-06T01:32:29.744Z,101800.34
2023-04-06T01:37:35.162Z,101803.84
2023-04-06T01:42:38.822Z,101798.25
2023-04-06T01:47:42.550Z,101786.47
2023-04-06T01:52:47.908Z,101790.66
2023-04-06T01:57:51.595Z,101780.81
2023-04-06T02:02:55.250Z,101784.16
2023-04-06T02:08:00.565Z,101773.25
2023-04-06T02:13:04.288Z,101785.03
2023-04-06T02:18:08.129Z,101787.00
2023-04-06T02:23:14.516Z,101802.03
2023-04-06T02:28:18.180Z,101806.88
2023-04-06T02:33:21.848Z,101813.47
2023-04-06T02:38:27.161Z,101815.44
2023-04-06T02:43:30.845Z,101818.78
2023-04-06T02:48:34.506Z,101820.31
2023-04-06T02:53:39.799Z,101808.06
2023-04-06T02:58:43.447Z,101816.31
2023-04-06T03:03:47.232Z,101811.19
2023-04-06T03:08:52.757Z,101819.88
2023-04-06T03:13:56.777Z,101808.53
2023-04-06T03:19:00.496Z,101815.59
2023-04-06T03:24:06.576Z,101815.44
2023-04-06T03:29:09.840Z,101819.00
2023-04-06T03:34:13.713Z,101821.63
2023-04-06T03:39:19.080Z,101824.63
2023-04-06T03:44:22.769Z,101828.75
2023-04-06T03:49:27.215Z,101847.03
2023-04-06T03:54:32.548Z,101842.19
2023-04-06T03:59:36.700Z,101836.00
2023-04-06T04:04:40.842Z,101833.50
2023-04-06T04:09:46.206Z,101837.63
2023-04-06T04:14:49.902Z,101834.16
2023-04-06T04:19:53.581Z,101832.31
2023-04-06T04:24:58.942Z,101841.88
2023-04-06T04:30:02.633Z,101840.13
2023-04-06T04:35:07.555Z,101842.09
2023-04-06T04:40:13.901Z,101849.53
2023-04-06T04:45:17.663Z,101858.50
2023-04-06T04:50:21.467Z,101865.63
2023-04-06T04:55:26.864Z,101855.28
2023-04-06T05:00:30.557Z,101853.69
2023-04-06T05:05:34.193Z,101858.19
2023-04-06T05:11:09.661Z,101867.88
2023-04-06T05:16:13.442Z,101861.88
2023-04-06T05:21:17.162Z,101879.31
2023-04-06T05:26:22.489Z,101875.00
2023-04-06T05:31:26.215Z,101880.28
2023-04-06T05:36:29.894Z,101883.72
2023-04-06T05:41:35.184Z,101876.75
2023-04-06T05:46:38.838Z,101881.13
2023-04-06T05:51:42.525Z,101890.69
2023-04-06T05:56:47.865Z,101885.53
2023-04-06T06:01:51.573Z,101884.63
2023-04-06T06:06:55.351Z,101894.19
2023-04-06T06:12:01.166Z,101885.50
2023-04-06T06:17:04.847Z,101878.53
2023-04-06T06:22:08.552Z,101883.78
2023-04-06T06:27:14.885Z,101875.09
2023-04-06T06:32:18.863Z,101880.31
2023-04-06T06:37:22.574Z,101880.31
2023-04-06T06:42:27.936Z,101880.31
2023-04-06T06:47:31.752Z,101882.06
2023-04-06T06:52:35.452Z,101882.91
2023-04-06T06:57:40.904Z,101872.50
2023-04-06T07:02:44.819Z,101875.97
2023-04-06T07:07:48.489Z,101871.63
2023-04-06T07:12:53.755Z,101867.28
2023-04-06T07:17:57.473Z,101868.13
2023-04-06T07:23:01.241Z,101863.78
2023-04-06T07:28:06.670Z,101872.47
2023-04-06T07:33:11.132Z,101871.56
2023-04-06T07:38:15.204Z,101869.81
2023-04-06T07:43:20.525Z,101878.47
2023-04-06T07:48:24.150Z,101874.16
2023-04-06T07:53:27.873Z,101871.53
2023-04-06T07:58:33.144Z,101875.84
2023-04-06T08:03:37.256Z,101867.09
2023-04-06T08:08:41.090Z,101874.94
2023-04-06T08:13:46.466Z,101878.31
2023-04-06T08:18:50.120Z,101873.97
2023-04-06T08:23:53.793Z,101870.50
2023-04-06T08:28:59.059Z,101866.13
2023-04-06T08:34:05.760Z,101852.19
2023-04-06T08:39:09.548Z,101850.50
2023-04-06T08:44:14.935Z,101852.13
2023-04-06T08:49:18.791Z,101861.59
2023-04-06T08:54:22.431Z,101855.53
2023-04-06T08:59:28.473Z,101861.56
2023-04-06T09:04:32.292Z,101865.84
2023-04-06T09:09:35.947Z,101859.78
2023-04-06T09:14:41.388Z,101852.81
2023-04-06T09:19:48.781Z,101857.25
2023-04-06T09:24:54.959Z,101854.59
2023-04-06T09:30:07.816Z,101843.28
2023-04-06T09:35:11.945Z,101841.56
2023-04-06T09:40:16.230Z,101838.91
2023-04-06T09:45:21.982Z,101830.28
2023-04-06T09:50:28.480Z,101832.91
2023-04-06T09:55:33.008Z,101838.88
2023-04-06T10:00:45.154Z,101829.34
2023-04-06T10:05:55.938Z,101821.53
2023-04-06T10:11:00.481Z,101814.56
2023-04-06T10:16:06.665Z,101796.44
2023-04-06T10:21:13.481Z,101784.22
2023-04-06T10:26:18.524Z,101775.53
2023-04-06T10:31:29.223Z,101776.38
2023-04-06T10:36:35.595Z,101778.97
2023-04-06T10:41:42.862Z,101774.50
2023-04-06T10:46:53.948Z,101778.06
2023-04-06T10:51:58.573Z,101764.16
2023-04-06T10:57:02.430Z,101752.84
2023-04-06T11:02:07.951Z,101743.41
2023-04-06T11:07:11.579Z,101726.91
2023-04-06T11:12:23.657Z,101732.13
2023-04-06T11:17:30.668Z,101734.81
2023-04-06T11:22:34.481Z,101730.44
2023-04-06T11:27:38.307Z,101729.59
2023-04-06T11:32:48.267Z,101721.78
2023-04-06T11:37:52.565Z,101729.63
2023-04-06T11:42:57.228Z,101728.75
2023-04-06T11:48:02.829Z,101730.47
2023-04-06T11:53:06.487Z,101729.63
2023-04-06T11:58:10.178Z,101726.13
2023-04-06T12:03:16.480Z,101725.16
2023-04-06T12:08:20.151Z,101723.31
2023-04-06T12:13:23.824Z,101738.03
2023-04-06T12:18:29.180Z,101742.31
2023-04-06T12:23:32.825Z,101746.69
2023-04-06T12:28:36.486Z,101746.66
2023-04-06T12:33:41.842Z,101744.88
2023-04-06T12:38:45.514Z,101753.53
2023-04-06T12:43:50.290Z,101758.66
2023-04-06T12:48:55.592Z,101758.66
2023-04-06T12:53:59.262Z,101770.72
2023-04-06T12:59:02.942Z,101768.09
2023-04-06T13:04:08.341Z,101773.28
2023-04-06T13:09:12.006Z,101779.31
2023-04-06T13:14:15.690Z,101791.47
2023-04-06T13:19:21.120Z,101794.88
2023-04-06T13:24:24.810Z,101786.06
2023-04-06T13:29:28.513Z,101787.81
2023-04-06T13:34:33.810Z,101802.44
2023-04-06T13:39:37.447Z,101810.19
2023-04-06T13:44:41.273Z,101811.00
2023-04-06T13:49:46.600Z,101816.25
2023-04-06T13:54:51.619Z,101804.97
2023-04-06T13:59:55.206Z,101800.53
2023-04-06T14:05:00.506Z,101799.66
2023-04-06T14:10:04.805Z,101792.75
2023-04-06T14:15:09.818Z,101783.31
2023-04-06T14:20:15.328Z,101778.38
2023-04-06T14:25:19.016Z,101778.78
2023-04-06T14:30:22.632Z,101784.31
2023-04-06T14:35:27.931Z,101786.97
2023-04-06T14:40:31.492Z,101789.75
2023-04-06T14:45:36.116Z,101799.19
2023-04-06T14:50:41.602Z,101805.16
2023-04-06T14:55:45.261Z,101816.47
2023-04-06T15:00:49.511Z,101814.88
2023-04-06T15:05:55.032Z,101812.47
2023-04-06T15:11:01.552Z,101813.41
2023-04-06T15:16:05.412Z,101824.72
2023-04-06T15:21:10.670Z,101829.84
2023-04-06T15:26:14.342Z,101823.44
2023-04-06T15:36:30.627Z,101829.31
2023-04-06T15:41:34.592Z,101830.16
2023-04-06T15:46:38.204Z,101832.78
2023-04-06T15:51:43.426Z,101829.41
2023-04-06T15:56:47.120Z,101822.59
2023-04-06T16:01:50.859Z,101812.00
2023-04-06T16:06:56.191Z,101824.19
2023-04-06T16:11:59.775Z,101814.97
2023-04-06T16:17:03.413Z,101813.34
2023-04-06T16:22:09.045Z,101794.44
2023-04-06T16:27:14.788Z,101791.56
2023-04-06T16:32:18.412Z,101776.75
2023-04-06T16:37:23.687Z,101773.41
2023-04-06T16:42:27.687Z,101765.72
2023-04-06T16:47:31.687Z,101748.59
2023-04-06T16:52:37.086Z,101745.41
2023-04-06T16:57:40.689Z,101746.72
2023-04-06T17:02:47.605Z,101751.16
2023-04-06T17:07:53.409Z,101747.13
2023-04-06T17:12:57.005Z,101745.91
2023-04-06T17:18:00.705Z,101751.38
2023-04-06T17:23:05.982Z,101744.88
2023-04-06T17:28:09.640Z,101754.72
2023-04-06T17:33:13.279Z,101761.31
2023-04-06T17:38:18.585Z,101749.38
2023-04-06T17:43:22.205Z,101755.41
2023-04-06T17:48:25.817Z,101747.31
2023-04-06T17:53:31.120Z,101766.53
2023-04-06T17:58:34.777Z,101765.41
2023-04-06T18:03:38.707Z,101760.91
2023-04-06T18:08:45.023Z,101754.91
2023-04-06T18:13:48.886Z,101750.22
2023-04-06T18:18:52.683Z,101743.44
2023-04-06T18:24:00.062Z,101740.09
2023-04-06T18:29:06.626Z,101729.66
2023-04-06T18:34:10.377Z,101719.34
2023-04-06T18:39:15.842Z,101705.34
2023-04-06T18:44:19.488Z,101699.16
2023-04-06T18:49:23.128Z,101702.38
2023-04-06T18:54:28.485Z,101685.81
2023-04-06T18:59:32.126Z,101676.97
2023-04-06T19:04:35.972Z,101671.97
2023-04-06T19:09:41.384Z,101676.72
2023-04-06T19:14:44.991Z,101674.88
2023-04-06T19:19:48.800Z,101675.63
2023-04-06T19:24:54.212Z,101668.78
2023-04-06T19:29:57.948Z,101669.81
2023-04-06T19:35:01.734Z,101655.13
2023-04-06T19:40:07.809Z,101657.84
2023-04-06T19:45:11.629Z,101636.75
2023-04-06T19:50:15.236Z,101633.59
2023-04-06T19:55:20.619Z,101621.38
2023-04-06T20:00:24.456Z,101628.69
2023-04-06T20:05:28.083Z,101607.19
2023-04-06T20:10:33.388Z,101611.94
2023-04-06T20:15:37.014Z,101609.13
2023-04-06T20:20:40.641Z,101606.94
2023-04-06T20:25:45.893Z,101604.41
2023-04-06T20:30:53.208Z,101597.00
2023-04-06T20:36:00.360Z,101599.44
2023-04-06T20:41:08.919Z,101582.25
2023-04-06T20:46:17.545Z,101579.91
2023-04-06T20:51:22.165Z,101583.50
2023-04-06T20:56:27.660Z,101584.13
2023-04-06T21:01:30.545Z,101563.13
2023-04-06T21:06:34.294Z,101571.91
2023-04-06T21:11:39.564Z,101558.66
2023-04-06T21:16:43.231Z,101564.56
2023-04-06T21:21:46.863Z,101554.97
2023-04-06T21:26:52.312Z,101551.38
2023-04-06T21:31:55.977Z,101549.66
2023-04-06T21:36:59.658Z,101544.13
2023-04-06T21:42:05.224Z,101543.22
2023-04-06T21:47:08.944Z,101540.28
2023-04-06T21:52:12.613Z,101530.88
2023-04-06T21:57:17.867Z,101521.75
2023-04-06T22:02:21.588Z,101518.13
2023-04-06T22:07:25.271Z,101516.19
2023-04-06T22:12:30.520Z,101505.41
2023-04-06T22:17:34.268Z,101496.47
2023-04-06T22:22:37.989Z,101489.56
2023-04-06T22:27:43.279Z,101472.16
2023-04-06T22:32:47.006Z,101474.31
2023-04-06T22:37:50.683Z,101460.91
2023-04-06T22:42:55.987Z,101459.69
2023-04-06T22:48:00.266Z,101452.72
2023-04-06T22:53:03.962Z,101449.97
2023-04-06T22:58:09.249Z,101440.75
2023-04-06T23:03:12.913Z,101436.09
2023-04-06T23:08:16.668Z,101429.25
2023-04-06T23:13:21.996Z,101432.00
2023-04-06T23:18:25.661Z,101419.78
2023-04-06T23:23:29.292Z,101411.59
2023-04-06T23:28:34.590Z,101415.34
2023-04-06T23:33:38.281Z,101402.41
2023-04-06T23:38:42.176Z,101396.59
2023-04-06T23:43:47.496Z,101393.81
2023-04-06T23:48:51.093Z,101390.06
2023-04-06T23:53:54.700Z,101374.06
2023-04-06T23:59:00.017Z,101383.88
